Time;durP1;ratioP1;P1;durP2;ratioP2;P2;SDS_P1;SDS_P2;PMS_P1;PMS_P2;Temp;Humidity;BMP_temperature;BMP_pressure;BME280_temperature;BME280_humidity;BME280_pressure;Samples;Min_cycle;Max_cycle;Signal;HPM_P1;HPM_P2
2023/05/15 00:00:50;;;;;;;;;;;;;;;16.44;70.03;99168.56;4362826;32;33895;-86
2023/05/15 00:03:18;;;;;;;;;;;;;;;16.40;70.10;99170.59;4362072;32;32941;-86
2023/05/15 00:05:47;;;;;;;;;;;;;;;16.45;70.32;99172.91;4375515;32;33446;-86
2023/05/15 00:08:14;;;;;;;;;;;;;;;16.05;71.35;99160.03;4354910;32;32560;-86
2023/05/15 00:10:42;;;;;;;;;;;;;;;15.83;72.31;99166.97;4362780;32;35290;-85
2023/05/15 00:13:26;;;;;;;;;;;;;;;15.97;72.17;99168.59;4364143;32;33803;-85
2023/05/15 00:15:54;;;;;;;;;;;;;;;16.24;71.26;99181.62;4362254;32;33759;-85
2023/05/15 00:18:22;;;;;;;;;;;;;;;16.00;71.83;99188.78;4362044;32;34239;-86
2023/05/15 00:20:51;;;;;;;;;;;;;;;16.17;71.67;99188.34;4374812;32;33926;-86
2023/05/15 00:23:19;;;;;;;;;;;;;;;16.08;72.05;99187.25;4386383;32;34201;-85
2023/05/15 00:25:47;;;;;;;;;;;;;;;16.09;71.55;99202.28;4375051;32;31897;-85
2023/05/15 00:28:14;;;;;;;;;;;;;;;16.39;70.63;99198.22;4362217;32;33545;-85
2023/05/15 00:30:43;;;;;;;;;;;;;;;16.24;71.28;99202.06;4348878;32;33536;-85
2023/05/15 00:33:11;;;;;;;;;;;;;;;16.20;71.58;99203.28;4374261;32;32806;-85
2023/05/15 00:35:38;;;;;;;;;;;;;;;16.23;70.94;99185.22;4349084;32;33404;-85
2023/05/15 00:38:06;;;;;;;;;;;;;;;16.50;70.28;99184.91;4361728;32;33497;-86
2023/05/15 00:40:36;;;;;;;;;;;;;;;16.70;69.31;99187.81;4350748;32;33138;-86
2023/05/15 00:43:04;;;;;;;;;;;;;;;16.38;69.97;99176.06;4388739;32;33838;-85
2023/05/15 00:45:32;;;;;;;;;;;;;;;16.35;70.32;99181.62;4376222;32;33008;-85
2023/05/15 00:48:00;;;;;;;;;;;;;;;16.31;70.91;99172.16;4363724;32;32588;-85
2023/05/15 00:50:28;;;;;;;;;;;;;;;16.25;70.77;99172.66;4364290;32;34608;-86
2023/05/15 00:52:57;;;;;;;;;;;;;;;16.36;70.72;99170.00;4388752;32;32756;-85
2023/05/15 00:55:33;;;;;;;;;;;;;;;16.31;70.61;99169.50;4376815;32;32755;-85
2023/05/15 00:58:02;;;;;;;;;;;;;;;16.51;70.14;99167.09;4362746;32;33135;-87
2023/05/15 01:00:31;;;;;;;;;;;;;;;16.48;70.08;99162.87;4364350;32;35127;-86
2023/05/15 01:03:00;;;;;;;;;;;;;;;16.64;69.39;99158.03;4351482;32;33041;-86
2023/05/15 01:05:28;;;;;;;;;;;;;;;16.59;69.55;99154.87;4376326;32;33326;-86
2023/05/15 01:08:16;;;;;;;;;;;;;;;16.47;70.03;99149.66;4349250;32;32852;-87
2023/05/15 01:10:44;;;;;;;;;;;;;;;16.47;70.06;99142.50;4362393;32;33461;-86
2023/05/15 01:13:13;;;;;;;;;;;;;;;15.97;71.59;99133.97;4360661;32;33217;-87
2023/05/15 01:15:41;;;;;;;;;;;;;;;15.86;72.54;99129.47;4361072;32;32373;-87
2023/05/15 01:18:10;;;;;;;;;;;;;;;15.76;72.74;99130.25;4360223;32;34646;-86
2023/05/15 01:20:57;;;;;;;;;;;;;;;16.04;72.20;99131.66;4354864;32;33856;-86
2023/05/15 01:23:25;;;;;;;;;;;;;;;16.15;71.69;99129.03;4363733;32;33534;-87
2023/05/15 01:26:10;;;;;;;;;;;;;;;16.06;71.84;99122.63;4377547;32;34044;-86
2023/05/15 01:28:42;;;;;;;;;;;;;;;15.91;72.81;99118.47;4351710;32;33181;-85
2023/05/15 01:31:14;;;;;;;;;;;;;;;15.67;73.43;99123.00;4376134;32;33190;-84
2023/05/15 01:33:43;;;;;;;;;;;;;;;15.96;72.90;99126.09;4376952;32;33903;-85
2023/05/15 01:36:23;;;;;;;;;;;;;;;15.93;72.44;99135.16;4364222;32;32551;-84
2023/05/15 01:38:52;;;;;;;;;;;;;;;16.03;72.29;99120.19;4387642;32;34144;-85
2023/05/15 01:41:20;;;;;;;;;;;;;;;15.68;73.85;99108.72;4363188;32;35073;-85
2023/05/15 01:43:54;;;;;;;;;;;;;;;15.94;72.62;99107.56;4363443;32;34511;-87
2023/05/15 01:46:22;;;;;;;;;;;;;;;16.09;72.25;99118.84;4376600;32;32803;-87
2023/05/15 01:48:50;;;;;;;;;;;;;;;16.00;72.09;99117.78;4376379;32;33291;-85
2023/05/15 01:51:17;;;;;;;;;;;;;;;16.07;72.02;99118.13;4363533;32;34171;-85
2023/05/15 01:53:45;;;;;;;;;;;;;;;16.31;71.25;99118.03;4375637;32;34423;-85
2023/05/15 01:56:15;;;;;;;;;;;;;;;16.27;71.40;99105.91;4389230;32;32607;-86
2023/05/15 01:58:45;;;;;;;;;;;;;;;16.30;71.11;99105.69;4364538;32;33816;-86
2023/05/15 02:01:13;;;;;;;;;;;;;;;16.53;70.24;99112.72;4388700;32;32681;-86
2023/05/15 02:03:41;;;;;;;;;;;;;;;16.52;70.50;99126.16;4364377;32;34719;-86
2023/05/15 02:06:08;;;;;;;;;;;;;;;16.21;71.36;99125.91;4363334;32;33149;-85
2023/05/15 02:08:36;;;;;;;;;;;;;;;16.39;70.87;99126.28;4363176;32;32863;-86
2023/05/15 02:11:04;;;;;;;;;;;;;;;16.46;70.72;99132.81;4376147;32;33866;-86
2023/05/15 02:13:32;;;;;;;;;;;;;;;16.52;70.45;99137.69;4375900;32;34945;-86
2023/05/15 02:16:00;;;;;;;;;;;;;;;16.60;70.20;99145.91;4363782;32;33210;-86
2023/05/15 02:18:28;;;;;;;;;;;;;;;16.62;70.10;99159.97;4363043;32;34180;-85
2023/05/15 02:21:02;;;;;;;;;;;;;;;16.35;70.39;99167.47;4364229;32;33559;-86
2023/05/15 02:23:32;;;;;;;;;;;;;;;16.21;71.34;99175.66;4365155;32;33478;-88
2023/05/15 02:26:04;;;;;;;;;;;;;;;16.55;70.45;99165.91;4352693;32;32752;-89
2023/05/15 02:28:51;;;;;;;;;;;;;;;16.50;70.36;99168.91;4377219;32;33137;-88
2023/05/15 02:31:25;;;;;;;;;;;;;;;16.58;70.02;99177.16;4365145;32;34261;-89
2023/05/15 02:34:08;;;;;;;;;;;;;;;16.55;70.29;99169.41;4377238;32;33681;-89
2023/05/15 02:36:36;;;;;;;;;;;;;;;16.67;69.70;99169.44;4389936;32;33729;-89
2023/05/15 02:39:03;;;;;;;;;;;;;;;16.58;70.17;99163.00;4389429;32;34116;-89
2023/05/15 02:41:31;;;;;;;;;;;;;;;16.71;69.59;99162.84;4375778;32;33391;-85
2023/05/15 02:43:59;;;;;;;;;;;;;;;16.59;69.82;99159.38;4363210;32;34407;-84
2023/05/15 02:46:27;;;;;;;;;;;;;;;16.64;69.56;99147.37;4376157;32;32340;-84
2023/05/15 02:48:55;;;;;;;;;;;;;;;16.84;69.25;99143.12;4363552;32;33539;-85
2023/05/15 02:51:23;;;;;;;;;;;;;;;16.84;69.06;99148.47;4363535;32;34331;-85
2023/05/15 02:53:52;;;;;;;;;;;;;;;16.85;69.06;99144.84;4376070;32;34455;-85
2023/05/15 02:56:21;;;;;;;;;;;;;;;16.89;69.02;99145.44;4351076;32;32188;-86
2023/05/15 02:58:49;;;;;;;;;;;;;;;16.85;69.12;99134.19;4363635;32;34120;-85
2023/05/15 03:01:18;;;;;;;;;;;;;;;16.80;68.83;99136.34;4363611;32;33992;-85
2023/05/15 03:03:46;;;;;;;;;;;;;;;16.94;68.53;99131.75;4363871;32;33509;-85
2023/05/15 03:06:15;;;;;;;;;;;;;;;16.86;68.88;99130.56;4351321;32;32988;-85
2023/05/15 03:08:48;;;;;;;;;;;;;;;16.90;68.72;99131.13;4365065;32;34316;-86
2023/05/15 03:11:18;;;;;;;;;;;;;;;16.87;68.99;99131.41;4387022;32;33929;-85
2023/05/15 03:13:45;;;;;;;;;;;;;;;17.01;68.38;99127.62;4359280;32;32903;-86
2023/05/15 03:16:13;;;;;;;;;;;;;;;17.14;67.93;99112.31;4363140;32;32337;-85
2023/05/15 03:18:42;;;;;;;;;;;;;;;17.28;67.08;99090.69;4375717;32;33650;-85
2023/05/15 03:21:13;;;;;;;;;;;;;;;16.65;69.44;99090.41;4374924;32;33288;-85
2023/05/15 03:23:41;;;;;;;;;;;;;;;16.77;68.69;99077.13;4375566;32;34722;-86
2023/05/15 03:26:09;;;;;;;;;;;;;;;16.45;69.91;99091.16;4357544;32;32056;-85
2023/05/15 03:28:39;;;;;;;;;;;;;;;16.30;70.20;99090.56;4366013;32;33142;-86
2023/05/15 03:31:09;;;;;;;;;;;;;;;16.57;69.93;99084.88;4371170;32;33943;-86
2023/05/15 03:33:37;;;;;;;;;;;;;;;16.81;68.64;99073.25;4381906;32;33271;-86
2023/05/15 03:36:05;;;;;;;;;;;;;;;16.85;68.49;99075.53;4357732;32;32206;-86
2023/05/15 03:38:35;;;;;;;;;;;;;;;16.72;68.66;99079.31;4362917;32;32894;-86
2023/05/15 03:41:13;;;;;;;;;;;;;;;16.67;69.29;99079.66;4385249;32;35015;-87
2023/05/15 03:43:41;;;;;;;;;;;;;;;16.71;69.20;99077.56;4382133;32;34941;-86
2023/05/15 03:46:09;;;;;;;;;;;;;;;16.78;68.97;99081.47;4370113;32;32607;-86
2023/05/15 03:48:39;;;;;;;;;;;;;;;16.80;69.04;99082.19;4369499;32;33594;-86
2023/05/15 03:51:08;;;;;;;;;;;;;;;16.82;69.06;99074.94;4367285;32;34163;-86
2023/05/15 03:53:35;;;;;;;;;;;;;;;17.14;67.80;99081.16;4398019;32;33244;-86
2023/05/15 03:56:07;;;;;;;;;;;;;;;16.95;68.35;99075.62;4382661;32;33615;-85
2023/05/15 03:58:37;;;;;;;;;;;;;;;16.86;68.73;99084.38;4363002;32;33912;-86
2023/05/15 04:01:06;;;;;;;;;;;;;;;17.02;68.50;99071.47;4375730;32;32662;-85
2023/05/15 04:03:34;;;;;;;;;;;;;;;17.16;67.86;99054.34;4383104;32;33101;-86
2023/05/15 04:06:04;;;;;;;;;;;;;;;17.21;67.39;99053.97;4379119;32;32691;-86
2023/05/15 04:08:32;;;;;;;;;;;;;;;17.18;67.44;99054.19;4372046;32;34124;-86
2023/05/15 04:11:02;;;;;;;;;;;;;;;16.98;68.21;99042.50;4377897;32;34696;-86
2023/05/15 04:13:30;;;;;;;;;;;;;;;17.00;68.35;99040.59;4361844;32;33171;-86
2023/05/15 04:15:58;;;;;;;;;;;;;;;17.20;67.47;99041.59;4369867;32;33389;-86
2023/05/15 04:18:27;;;;;;;;;;;;;;;17.08;67.80;99041.63;4367922;32;33957;-86
2023/05/15 04:20:57;;;;;;;;;;;;;;;16.85;68.40;99048.87;4376579;32;33395;-86
2023/05/15 04:23:24;;;;;;;;;;;;;;;16.80;69.14;99047.53;4388959;32;33244;-86
2023/05/15 04:25:54;;;;;;;;;;;;;;;16.92;68.68;99046.53;4364593;32;33526;-86
2023/05/15 04:28:23;;;;;;;;;;;;;;;17.00;68.55;99041.44;4360128;32;33439;-86
2023/05/15 04:30:50;;;;;;;;;;;;;;;16.87;69.06;99051.41;4377412;32;33599;-86
2023/05/15 04:33:20;;;;;;;;;;;;;;;16.84;69.10;99068.47;4358923;32;33411;-86
2023/05/15 04:35:48;;;;;;;;;;;;;;;16.81;69.26;99078.56;4392619;32;32493;-86
2023/05/15 04:38:16;;;;;;;;;;;;;;;16.83;69.12;99080.13;4366091;32;32759;-86
2023/05/15 04:40:46;;;;;;;;;;;;;;;16.85;69.11;99080.00;4368248;32;35530;-86
2023/05/15 04:43:25;;;;;;;;;;;;;;;16.94;68.82;99089.91;4384121;32;33903;-86
2023/05/15 04:45:57;;;;;;;;;;;;;;;16.86;69.09;99084.38;4368737;32;31990;-86
2023/05/15 04:48:32;;;;;;;;;;;;;;;16.94;68.82;99089.91;4377052;32;33026;-86
2023/05/15 04:51:01;;;;;;;;;;;;;;;16.92;69.05;99091.88;4377389;32;33759;-86
2023/05/15 04:53:29;;;;;;;;;;;;;;;16.89;69.09;99100.09;4354940;32;32956;-86
2023/05/15 04:55:58;;;;;;;;;;;;;;;17.06;68.65;99115.59;4349686;32;33389;-87
2023/05/15 04:58:26;;;;;;;;;;;;;;;17.17;68.49;99116.53;4358076;32;33033;-87
2023/05/15 05:01:00;;;;;;;;;;;;;;;17.29;68.01;99128.88;4389688;32;34154;-87
2023/05/15 05:03:33;;;;;;;;;;;;;;;17.13;68.02;99122.13;4372316;32;32772;-87
2023/05/15 05:06:08;;;;;;;;;;;;;;;17.19;68.22;99119.94;4368498;32;34124;-87
2023/05/15 05:08:37;;;;;;;;;;;;;;;17.21;68.32;99121.50;4376593;32;33819;-87
2023/05/15 05:11:09;;;;;;;;;;;;;;;17.24;68.15;99112.41;4351377;32;33091;-86
2023/05/15 05:13:38;;;;;;;;;;;;;;;17.31;67.95;99121.59;4351336;32;33104;-86
2023/05/15 05:16:06;;;;;;;;;;;;;;;17.29;68.06;99121.72;4364783;32;33692;-86
2023/05/15 05:18:37;;;;;;;;;;;;;;;17.02;68.71;99129.31;4363735;32;33024;-86
2023/05/15 05:21:07;;;;;;;;;;;;;;;17.01;69.11;99128.47;4375310;32;32614;-86
2023/05/15 05:23:36;;;;;;;;;;;;;;;16.99;69.25;99141.06;4363290;32;32900;-87
2023/05/15 05:26:05;;;;;;;;;;;;;;;17.26;68.72;99135.31;4363808;32;34191;-86
2023/05/15 05:28:34;;;;;;;;;;;;;;;17.26;68.47;99135.31;4361799;32;33685;-86
2023/05/15 05:31:04;;;;;;;;;;;;;;;17.25;68.76;99136.28;4364895;32;33140;-87
2023/05/15 05:33:34;;;;;;;;;;;;;;;17.31;68.70;99126.94;4364227;32;34210;-87
2023/05/15 05:36:04;;;;;;;;;;;;;;;17.41;68.33;99110.03;4364007;32;34153;-89
2023/05/15 05:38:33;;;;;;;;;;;;;;;17.45;68.23;99109.78;4364943;32;33044;-88
2023/05/15 05:41:02;;;;;;;;;;;;;;;17.44;68.52;99106.25;4364873;32;34189;-89
2023/05/15 05:43:41;;;;;;;;;;;;;;;17.47;68.69;99102.47;4351357;32;32957;-90
2023/05/15 05:46:09;;;;;;;;;;;;;;;17.39;69.13;99109.31;4365060;32;34203;-89
2023/05/15 05:48:37;;;;;;;;;;;;;;;17.57;69.03;99119.44;4352548;32;33217;-89
2023/05/15 05:51:07;;;;;;;;;;;;;;;17.69;68.67;99118.41;4352912;32;33586;-90
2023/05/15 05:53:36;;;;;;;;;;;;;;;17.44;69.74;99130.28;4352662;32;32516;-90
2023/05/15 05:56:08;;;;;;;;;;;;;;;17.55;69.21;99127.56;4365416;32;33304;-90
2023/05/15 05:58:43;;;;;;;;;;;;;;;17.55;69.31;99132.06;4376617;32;32841;-90
2023/05/15 06:07:09;;;;;;;;;;;;;;;17.66;69.02;99129.38;4378583;32;35013;-92
2023/05/15 06:10:02;;;;;;;;;;;;;;;17.70;69.35;99122.75;4351649;32;34122;-89
2023/05/15 06:12:33;;;;;;;;;;;;;;;17.89;68.86;99138.13;4358507;32;33182;-86
2023/05/15 06:15:02;;;;;;;;;;;;;;;17.98;69.15;99140.00;4361969;32;33312;-87
2023/05/15 06:17:37;;;;;;;;;;;;;;;18.11;68.94;99140.66;4350092;32;34659;-86
2023/05/15 06:20:07;;;;;;;;;;;;;;;18.37;68.17;99137.56;4347562;32;33381;-86
2023/05/15 06:22:44;;;;;;;;;;;;;;;18.48;66.80;99132.16;4349341;32;33888;-87
2023/05/15 06:25:25;;;;;;;;;;;;;;;18.00;67.81;99143.41;4358913;32;34803;-89
2023/05/15 06:27:53;;;;;;;;;;;;;;;18.15;68.20;99152.78;4361796;32;32621;-87
2023/05/15 06:30:22;;;;;;;;;;;;;;;18.15;67.92;99157.28;4349355;32;33268;-87
2023/05/15 06:32:54;;;;;;;;;;;;;;;18.20;67.95;99149.72;4361603;32;34000;-87
2023/05/15 06:35:25;;;;;;;;;;;;;;;18.04;67.76;99158.22;4349286;32;34150;-86
2023/05/15 06:38:03;;;;;;;;;;;;;;;17.97;68.22;99154.34;4347772;32;33378;-86
2023/05/15 06:40:32;;;;;;;;;;;;;;;18.33;67.67;99144.19;4362563;32;34537;-87
2023/05/15 06:43:07;;;;;;;;;;;;;;;18.47;66.82;99137.63;4348000;32;33401;-87
2023/05/15 06:45:36;;;;;;;;;;;;;;;18.49;66.10;99131.19;4362261;32;33587;-86
2023/05/15 06:48:06;;;;;;;;;;;;;;;18.59;66.05;99133.91;4358358;32;32433;-86
2023/05/15 06:50:34;;;;;;;;;;;;;;;18.55;66.67;99122.63;4348556;32;32970;-86
2023/05/15 06:53:03;;;;;;;;;;;;;;;18.58;67.00;99127.69;4350879;32;33956;-86
2023/05/15 06:55:33;;;;;;;;;;;;;;;18.73;66.50;99125.53;4336554;32;33410;-86
2023/05/15 06:58:04;;;;;;;;;;;;;;;18.67;66.45;99118.88;4361689;32;32773;-85
2023/05/15 07:00:33;;;;;;;;;;;;;;;18.95;65.21;99113.78;4346916;32;33407;-84
2023/05/15 07:03:02;;;;;;;;;;;;;;;18.92;65.47;99120.25;4347730;32;33380;-85
2023/05/15 07:05:39;;;;;;;;;;;;;;;18.72;66.45;99145.25;4347361;32;32938;-85
2023/05/15 07:08:16;;;;;;;;;;;;;;;18.66;65.29;99133.22;4360669;32;32541;-85
2023/05/15 07:10:51;;;;;;;;;;;;;;;19.04;63.74;99134.38;4358627;32;33616;-85
2023/05/15 07:13:23;;;;;;;;;;;;;;;18.83;65.15;99142.47;4373139;32;34419;-85
2023/05/15 07:15:53;;;;;;;;;;;;;;;19.22;64.34;99147.91;4338606;32;33106;-85
2023/05/15 07:18:21;;;;;;;;;;;;;;;19.35;63.03;99148.50;4341687;32;32181;-85
2023/05/15 07:20:52;;;;;;;;;;;;;;;18.91;65.68;99157.84;4347712;32;32646;-85
2023/05/15 07:23:20;;;;;;;;;;;;;;;18.85;66.79;99158.41;4347228;32;33217;-85
2023/05/15 07:25:55;;;;;;;;;;;;;;;18.98;66.05;99161.66;4334646;32;34031;-85
2023/05/15 07:28:35;;;;;;;;;;;;;;;19.14;65.08;99170.03;4349057;32;32539;-85
2023/05/15 07:31:03;;;;;;;;;;;;;;;18.85;64.38;99179.78;4348866;32;33859;-85
2023/05/15 07:33:32;;;;;;;;;;;;;;;18.99;64.38;99173.19;4336429;32;34008;-85
2023/05/15 07:36:01;;;;;;;;;;;;;;;18.90;64.56;99165.03;4360980;32;33167;-85
2023/05/15 07:38:29;;;;;;;;;;;;;;;18.97;64.26;99148.44;4348063;32;33799;-85
2023/05/15 07:40:58;;;;;;;;;;;;;;;19.00;64.21;99146.34;4349176;32;34565;-87
2023/05/15 07:43:26;;;;;;;;;;;;;;;18.87;65.07;99148.41;4373046;32;33356;-88
2023/05/15 07:45:57;;;;;;;;;;;;;;;19.45;62.90;99143.16;4349271;32;33435;-88
2023/05/15 07:48:26;;;;;;;;;;;;;;;18.98;65.63;99142.09;4348930;32;33398;-88
2023/05/15 07:50:55;;;;;;;;;;;;;;;19.15;64.31;99142.28;4349003;32;34516;-88
2023/05/15 07:53:32;;;;;;;;;;;;;;;18.78;64.21;99139.34;4350740;32;33027;-88
2023/05/15 07:55:59;;;;;;;;;;;;;;;18.97;64.24;99133.22;4351269;32;33624;-88
2023/05/15 07:58:35;;;;;;;;;;;;;;;19.27;64.05;99140.31;4338416;32;33375;-87
2023/05/15 08:01:04;;;;;;;;;;;;;;;18.95;65.05;99156.59;4349574;32;32481;-88
2023/05/15 08:03:45;;;;;;;;;;;;;;;19.14;65.36;99167.34;4339524;32;34395;-88
2023/05/15 08:06:22;;;;;;;;;;;;;;;19.28;64.26;99181.34;4364209;32;33146;-89
2023/05/15 08:08:50;;;;;;;;;;;;;;;19.48;63.74;99171.50;4349540;32;32129;-89
2023/05/15 08:11:22;;;;;;;;;;;;;;;19.39;63.00;99157.97;4363766;32;34539;-89
2023/05/15 08:13:51;;;;;;;;;;;;;;;19.30;63.02;99171.31;4339106;32;32878;-89
2023/05/15 08:16:18;;;;;;;;;;;;;;;19.29;63.29;99175.00;4363848;32;32856;-88
2023/05/15 08:18:46;;;;;;;;;;;;;;;19.48;63.08;99174.19;4363644;32;33001;-89
2023/05/15 08:21:15;;;;;;;;;;;;;;;19.62;62.83;99171.97;4351303;32;34325;-89
2023/05/15 08:23:46;;;;;;;;;;;;;;;19.85;63.11;99171.72;4351635;32;33992;-89
2023/05/15 08:26:18;;;;;;;;;;;;;;;19.95;63.02;99169.87;4363506;32;32913;-89
2023/05/15 08:28:49;;;;;;;;;;;;;;;19.62;62.26;99182.69;4363631;32;32479;-89
2023/05/15 08:31:24;;;;;;;;;;;;;;;19.57;61.93;99178.72;4352019;32;33633;-89
2023/05/15 08:33:53;;;;;;;;;;;;;;;19.23;64.21;99179.06;4339011;32;34358;-89
2023/05/15 08:36:22;;;;;;;;;;;;;;;19.53;62.21;99167.44;4345128;32;33589;-89
2023/05/15 08:38:53;;;;;;;;;;;;;;;19.36;61.78;99165.41;4339373;32;32800;-90
2023/05/15 08:41:30;;;;;;;;;;;;;;;19.25;63.62;99162.87;4339865;32;32899;-90
2023/05/15 08:44:09;;;;;;;;;;;;;;;19.96;61.82;99155.47;4353233;32;32937;-90
2023/05/15 08:46:41;;;;;;;;;;;;;;;20.55;61.92;99156.22;4352246;32;33585;-90
2023/05/15 08:49:25;;;;;;;;;;;;;;;20.78;59.41;99148.66;4339519;32;32408;-90
2023/05/15 08:51:55;;;;;;;;;;;;;;;20.39;59.89;99154.97;4364166;32;33893;-91
2023/05/15 08:54:46;;;;;;;;;;;;;;;20.71;60.36;99160.00;4354065;32;32547;-90
2023/05/15 08:57:36;;;;;;;;;;;;;;;20.80;57.56;99149.38;4341783;32;33190;-91
2023/05/15 09:00:26;;;;;;;;;;;;;;;20.64;59.23;99142.78;4364126;32;32699;-90
2023/05/15 09:03:02;;;;;;;;;;;;;;;20.80;57.53;99135.97;4352734;32;33991;-91
2023/05/15 09:05:42;;;;;;;;;;;;;;;20.91;57.54;99143.81;4363783;32;34453;-90
2023/05/15 09:08:10;;;;;;;;;;;;;;;20.90;59.11;99147.50;4375575;32;32793;-89
2023/05/15 09:13:19;;;;;;;;;;;;;;;20.91;58.64;99170.63;4363655;32;32871;-89
2023/05/15 09:15:49;;;;;;;;;;;;;;;20.67;58.40;99174.69;4351860;32;33334;-90
2023/05/15 09:18:18;;;;;;;;;;;;;;;20.73;57.64;99177.78;4339137;32;33527;-90
2023/05/15 09:20:48;;;;;;;;;;;;;;;20.69;57.55;99178.06;4339674;32;33003;-90
2023/05/15 09:23:37;;;;;;;;;;;;;;;20.88;56.49;99176.28;4351159;32;33391;-90
2023/05/15 09:26:12;;;;;;;;;;;;;;;20.75;57.57;99182.00;4361961;32;35041;-90
2023/05/15 09:28:45;;;;;;;;;;;;;;;20.88;58.28;99187.03;4351822;32;33169;-90
2023/05/15 09:31:18;;;;;;;;;;;;;;;20.82;58.13;99187.63;4339595;32;32350;-90
2023/05/15 09:33:57;;;;;;;;;;;;;;;21.08;58.16;99194.03;4351405;32;33002;-90
2023/05/15 09:36:26;;;;;;;;;;;;;;;21.03;57.80;99207.03;4351750;32;33956;-90
2023/05/15 09:38:58;;;;;;;;;;;;;;;21.20;57.37;99208.06;4339242;32;34861;-90
2023/05/15 09:41:30;;;;;;;;;;;;;;;20.61;57.64;99207.47;4351112;32;32011;-90
2023/05/15 09:44:23;;;;;;;;;;;;;;;20.53;58.66;99209.19;4348863;33;35193;-89
2023/05/15 09:46:54;;;;;;;;;;;;;;;20.70;57.61;99206.59;4336466;32;33954;-90
2023/05/15 09:50:08;;;;;;;;;;;;;;;20.77;57.62;99203.31;4360113;32;34664;-89
2023/05/15 09:52:41;;;;;;;;;;;;;;;20.74;57.85;99207.13;4352449;32;32125;-90
2023/05/15 09:55:15;;;;;;;;;;;;;;;20.56;58.93;99204.38;4350690;32;33740;-89
2023/05/15 09:57:44;;;;;;;;;;;;;;;20.53;57.65;99210.03;4346556;32;33484;-89
2023/05/15 10:00:16;;;;;;;;;;;;;;;20.62;58.03;99203.78;4361871;32;32762;-89
2023/05/15 10:02:44;;;;;;;;;;;;;;;21.04;56.70;99206.03;4362113;32;31970;-88
2023/05/15 10:05:17;;;;;;;;;;;;;;;20.92;54.87;99200.00;4349207;32;33239;-89
2023/05/15 10:08:02;;;;;;;;;;;;;;;20.79;55.62;99209.37;4339888;32;33078;-88
2023/05/15 10:14:36;;;;;;;;;;;;;;;21.26;56.79;99206.63;4363099;32;34218;-88
2023/05/15 10:17:06;;;;;;;;;;;;;;;21.31;55.52;99212.44;4340027;32;33073;-89
2023/05/15 10:19:33;;;;;;;;;;;;;;;20.92;55.08;99209.91;4350667;32;34545;-88
2023/05/15 10:22:11;;;;;;;;;;;;;;;21.19;54.81;99212.59;4351536;32;34264;-88
2023/05/15 10:24:38;;;;;;;;;;;;;;;21.19;56.42;99204.56;4350794;32;32983;-89
2023/05/15 10:27:07;;;;;;;;;;;;;;;20.86;56.97;99207.81;4350587;32;34054;-89
2023/05/15 10:29:37;;;;;;;;;;;;;;;21.22;56.10;99216.81;4347482;32;33554;-90
2023/05/15 10:32:05;;;;;;;;;;;;;;;21.40;57.07;99206.16;4350538;32;34203;-89
2023/05/15 10:34:37;;;;;;;;;;;;;;;21.58;54.65;99204.34;4351711;32;33420;-89
2023/05/15 10:37:05;;;;;;;;;;;;;;;21.26;56.21;99217.38;4363030;32;32844;-90
2023/05/15 10:39:37;;;;;;;;;;;;;;;21.21;56.77;99215.13;4363326;32;32977;-90
2023/05/15 10:45:04;;;;;;;;;;;;;;;21.16;55.90;99218.25;4348870;32;31849;-90
2023/05/15 10:47:51;;;;;;;;;;;;;;;21.76;54.64;99214.28;4366040;32;34861;-89
2023/05/15 10:50:22;;;;;;;;;;;;;;;21.86;54.69;99209.66;4365743;32;34092;-90
2023/05/15 10:52:53;;;;;;;;;;;;;;;21.93;54.50;99208.03;4382474;32;33694;-89
2023/05/15 10:55:24;;;;;;;;;;;;;;;22.01;55.00;99201.91;4364753;32;32203;-89
2023/05/15 10:57:53;;;;;;;;;;;;;;;22.05;53.51;99198.75;4377245;32;34227;-90
2023/05/15 11:00:21;;;;;;;;;;;;;;;21.91;53.79;99212.75;4376978;32;33741;-89
2023/05/15 11:02:57;;;;;;;;;;;;;;;21.82;53.12;99202.91;4362132;32;33507;-89
2023/05/15 11:05:34;;;;;;;;;;;;;;;22.15;52.31;99204.91;4362817;32;32310;-89
2023/05/15 11:08:24;;;;;;;;;;;;;;;22.10;53.02;99201.81;4364048;32;33432;-89
2023/05/15 11:10:53;;;;;;;;;;;;;;;21.97;54.53;99212.97;4377305;32;32852;-89
2023/05/15 11:13:26;;;;;;;;;;;;;;;22.29;52.39;99200.00;4377375;32;32994;-89
2023/05/15 11:15:56;;;;;;;;;;;;;;;22.20;53.20;99199.91;4360637;32;31344;-89
2023/05/15 11:18:23;;;;;;;;;;;;;;;22.60;51.68;99192.28;4361873;32;33166;-89
2023/05/15 11:20:52;;;;;;;;;;;;;;;22.78;51.70;99193.06;4366827;32;33048;-89
2023/05/15 11:23:22;;;;;;;;;;;;;;;22.67;52.63;99188.81;4373701;32;33316;-88
2023/05/15 11:25:56;;;;;;;;;;;;;;;22.28;52.60;99188.41;4375134;32;34142;-89
2023/05/15 11:28:30;;;;;;;;;;;;;;;22.08;52.75;99190.41;4374081;32;34194;-89
2023/05/15 11:30:58;;;;;;;;;;;;;;;22.37;51.13;99192.00;4366237;32;33296;-89
2023/05/15 11:33:32;;;;;;;;;;;;;;;22.07;53.12;99194.06;4356989;32;33753;-88
2023/05/15 11:36:03;;;;;;;;;;;;;;;22.26;52.31;99200.28;4376766;32;34161;-89
2023/05/15 11:38:36;;;;;;;;;;;;;;;22.43;50.05;99192.19;4338994;32;957743;-90
2023/05/15 11:41:20;;;;;;;;;;;;;;;21.84;53.90;99190.16;4377422;32;33321;-90
2023/05/15 11:43:52;;;;;;;;;;;;;;;21.97;51.13;99196.84;4356394;32;34399;-89
2023/05/15 11:46:20;;;;;;;;;;;;;;;22.10;51.98;99193.75;4363308;32;33590;-89
2023/05/15 11:48:49;;;;;;;;;;;;;;;22.46;50.34;99181.12;4363555;32;33100;-89
2023/05/15 11:51:23;;;;;;;;;;;;;;;22.42;50.67;99178.91;4377776;32;33647;-89
2023/05/15 11:53:55;;;;;;;;;;;;;;;22.38;50.63;99178.37;4385725;32;32979;-89
2023/05/15 11:56:26;;;;;;;;;;;;;;;22.40;49.64;99178.22;4389381;32;33735;-89
2023/05/15 11:58:56;;;;;;;;;;;;;;;21.91;51.14;99185.87;4371739;32;33437;-89
2023/05/15 12:01:46;;;;;;;;;;;;;;;21.70;51.80;99181.66;4369248;32;33611;-89
2023/05/15 12:04:16;;;;;;;;;;;;;;;21.81;51.38;99185.94;4390102;32;32686;-89
2023/05/15 12:06:50;;;;;;;;;;;;;;;21.58;52.96;99182.84;4388634;32;33379;-89
2023/05/15 12:09:25;;;;;;;;;;;;;;;22.01;50.27;99181.25;4364360;32;33202;-90
2023/05/15 12:11:54;;;;;;;;;;;;;;;21.65;53.54;99186.63;4370759;32;32748;-89
2023/05/15 12:14:33;;;;;;;;;;;;;;;21.35;52.60;99184.28;4379470;32;34321;-89
2023/05/15 12:17:03;;;;;;;;;;;;;;;21.82;52.32;99194.84;4376318;32;33235;-90
2023/05/15 12:19:34;;;;;;;;;;;;;;;21.89;50.74;99182.50;4372930;32;33919;-90
2023/05/15 12:22:10;;;;;;;;;;;;;;;21.88;50.71;99186.16;4367414;32;33329;-89
2023/05/15 12:24:44;;;;;;;;;;;;;;;21.89;51.53;99185.19;4378516;32;33259;-90
2023/05/15 12:27:19;;;;;;;;;;;;;;;22.07;51.37;99186.00;4374458;32;32671;-89
2023/05/15 12:29:47;;;;;;;;;;;;;;;22.24;50.42;99190.53;4370515;32;32653;-89
2023/05/15 12:32:16;;;;;;;;;;;;;;;22.26;50.84;99205.66;4373176;32;34282;-89
2023/05/15 12:34:58;;;;;;;;;;;;;;;22.30;51.27;99201.69;4380419;32;32991;-90
2023/05/15 12:37:30;;;;;;;;;;;;;;;22.38;49.79;99199.06;4370893;32;32265;-90
2023/05/15 12:40:11;;;;;;;;;;;;;;;22.52;49.51;99205.72;4367744;32;35869;-89
2023/05/15 12:42:41;;;;;;;;;;;;;;;22.30;50.18;99202.50;4361428;32;34543;-90
2023/05/15 12:45:19;;;;;;;;;;;;;;;21.87;48.65;99185.31;4358444;32;32547;-90
2023/05/15 12:47:48;;;;;;;;;;;;;;;22.02;50.64;99190.16;4377404;32;32144;-89
2023/05/15 12:50:19;;;;;;;;;;;;;;;21.93;51.05;99199.97;4351140;32;32738;-89
2023/05/15 12:52:55;;;;;;;;;;;;;;;22.47;48.80;99187.34;4377745;32;33277;-89
2023/05/15 12:55:24;;;;;;;;;;;;;;;22.26;49.32;99176.09;4375305;32;33146;-91
2023/05/15 12:58:05;;;;;;;;;;;;;;;21.99;50.35;99172.50;4359187;32;32476;-91
2023/05/15 13:00:42;;;;;;;;;;;;;;;22.44;50.00;99176.91;4390019;32;33966;-91
2023/05/15 13:03:27;;;;;;;;;;;;;;;22.87;47.13;99164.34;4387380;32;33097;-91
2023/05/15 13:06:30;;;;;;;;;;;;;;;22.76;48.63;99160.09;4377851;32;34049;-91
2023/05/15 13:09:25;;;;;;;;;;;;;;;22.86;47.97;99160.81;4368391;32;32410;-90
2023/05/15 13:12:21;;;;;;;;;;;;;;;22.82;49.15;99161.31;4368006;32;33138;-90
2023/05/15 13:15:29;;;;;;;;;;;;;;;22.56;48.08;99170.25;4372906;32;32799;-91
2023/05/15 13:18:18;;;;;;;;;;;;;;;23.02;47.78;99170.84;4375369;32;32782;-91
2023/05/15 13:21:00;;;;;;;;;;;;;;;23.02;47.36;99165.47;4371073;32;33105;-91
2023/05/15 13:26:49;;;;;;;;;;;;;;;23.15;46.10;99144.31;4361563;32;33322;-90
2023/05/15 13:29:32;;;;;;;;;;;;;;;22.64;48.44;99148.75;4386295;32;33576;-93
2023/05/15 13:32:22;;;;;;;;;;;;;;;22.71;49.36;99152.50;4355036;32;33506;-89